sensor_id;sensor_type;location;lat;lon;timestamp;pressure;altitude;pressure_sealevel;temperature;humidity
64053;BME280;50299;49.524;8.536;2023-08-30T00:01:01;99855.31;;;13.55;78.05
64053;BME280;50299;49.524;8.536;2023-08-30T00:03:28;99855.31;;;13.55;79.06
64053;BME280;50299;49.524;8.536;2023-08-30T00:05:54;99848.66;;;13.60;81.98
64053;BME280;50299;49.524;8.536;2023-08-30T00:08:22;99854.00;;;13.68;84.60
64053;BME280;50299;49.524;8.536;2023-08-30T00:10:49;99843.78;;;13.72;81.84
64053;BME280;50299;49.524;8.536;2023-08-30T00:13:16;99836.25;;;13.73;82.69
64053;BME280;50299;49.524;8.536;2023-08-30T00:15:43;99846.53;;;13.72;82.08
64053;BME280;50299;49.524;8.536;2023-08-30T00:18:09;99842.59;;;13.73;81.33
64053;BME280;50299;49.524;8.536;2023-08-30T00:20:36;99842.59;;;13.73;81.92
64053;BME280;50299;49.524;8.536;2023-08-30T00:23:03;99838.94;;;13.69;80.08
64053;BME280;50299;49.524;8.536;2023-08-30T00:25:31;99836.47;;;13.64;81.07
64053;BME280;50299;49.524;8.536;2023-08-30T00:27:57;99845.16;;;13.63;82.31
64053;BME280;50299;49.524;8.536;2023-08-30T00:30:24;99841.13;;;13.60;81.04
64053;BME280;50299;49.524;8.536;2023-08-30T00:32:50;99847.56;;;13.64;83.69
64053;BME280;50299;49.524;8.536;2023-08-30T00:35:17;99842.88;;;13.68;83.43
64053;BME280;50299;49.524;8.536;2023-08-30T00:37:43;99849.47;;;13.60;76.27
64053;BME280;50299;49.524;8.536;2023-08-30T00:40:12;99850.19;;;13.57;80.07
64053;BME280;50299;49.524;8.536;2023-08-30T00:42:39;99850.28;;;13.25;75.20
64053;BME280;50299;49.524;8.536;2023-08-30T00:45:07;99841.84;;;13.22;81.90
64053;BME280;50299;49.524;8.536;2023-08-30T00:47:34;99842.16;;;13.17;79.19
64053;BME280;50299;49.524;8.536;2023-08-30T00:50:02;99845.06;;;13.24;81.74
64053;BME280;50299;49.524;8.536;2023-08-30T00:52:29;99832.75;;;13.05;78.20
64053;BME280;50299;49.524;8.536;2023-08-30T00:54:55;99842.50;;;12.99;77.86
64053;BME280;50299;49.524;8.536;2023-08-30T00:57:22;99840.47;;;12.96;79.55
64053;BME280;50299;49.524;8.536;2023-08-30T00:59:51;99847.06;;;13.07;81.00
64053;BME280;50299;49.524;8.536;2023-08-30T01:02:17;99836.31;;;13.22;79.65
64053;BME280;50299;49.524;8.536;2023-08-30T01:04:45;99829.59;;;13.23;79.74
64053;BME280;50299;49.524;8.536;2023-08-30T01:07:12;99825.44;;;13.32;81.02
64053;BME280;50299;49.524;8.536;2023-08-30T01:09:38;99827.56;;;13.39;79.86
64053;BME280;50299;49.524;8.536;2023-08-30T01:12:37;99827.19;;;13.41;76.05
64053;BME280;50299;49.524;8.536;2023-08-30T01:15:09;99821.06;;;13.31;76.34
64053;BME280;50299;49.524;8.536;2023-08-30T01:17:39;99823.53;;;13.37;78.44
64053;BME280;50299;49.524;8.536;2023-08-30T01:20:08;99828.06;;;13.25;79.00
64053;BME280;50299;49.524;8.536;2023-08-30T01:28:08;99808.44;;;13.34;81.23
64053;BME280;50299;49.524;8.536;2023-08-30T01:30:37;99810.84;;;13.36;78.64
64053;BME280;50299;49.524;8.536;2023-08-30T01:33:07;99809.06;;;13.27;78.57
64053;BME280;50299;49.524;8.536;2023-08-30T01:35:35;99807.75;;;13.21;79.37
64053;BME280;50299;49.524;8.536;2023-08-30T01:38:04;99806.50;;;13.19;77.83
64053;BME280;50299;49.524;8.536;2023-08-30T01:40:35;99805.13;;;13.28;79.62
64053;BME280;50299;49.524;8.536;2023-08-30T01:43:04;99800.75;;;13.27;77.32
64053;BME280;50299;49.524;8.536;2023-08-30T01:45:32;99807.16;;;13.31;77.40
64053;BME280;50299;49.524;8.536;2023-08-30T01:47:59;99795.94;;;13.24;79.06
64053;BME280;50299;49.524;8.536;2023-08-30T01:50:26;99797.50;;;13.41;81.77
64053;BME280;50299;49.524;8.536;2023-08-30T01:52:54;99800.06;;;13.50;80.83
64053;BME280;50299;49.524;8.536;2023-08-30T01:55:22;99806.31;;;13.47;78.08
64053;BME280;50299;49.524;8.536;2023-08-30T01:57:51;99803.91;;;13.45;79.27
64053;BME280;50299;49.524;8.536;2023-08-30T02:00:36;99800.31;;;13.25;76.92
64053;BME280;50299;49.524;8.536;2023-08-30T02:03:10;99791.44;;;13.20;79.70
64053;BME280;50299;49.524;8.536;2023-08-30T02:05:43;99788.53;;;13.13;78.95
64053;BME280;50299;49.524;8.536;2023-08-30T02:08:16;99789.03;;;13.18;79.07
64053;BME280;50299;49.524;8.536;2023-08-30T02:11:02;99790.72;;;13.23;75.81
64053;BME280;50299;49.524;8.536;2023-08-30T02:13:31;99785.97;;;13.04;78.81
64053;BME280;50299;49.524;8.536;2023-08-30T02:16:00;99783.25;;;13.07;79.20
64053;BME280;50299;49.524;8.536;2023-08-30T02:18:28;99785.56;;;13.21;79.98
64053;BME280;50299;49.524;8.536;2023-08-30T02:20:54;99783.06;;;13.16;78.50
64053;BME280;50299;49.524;8.536;2023-08-30T02:23:23;99787.53;;;13.21;80.33
64053;BME280;50299;49.524;8.536;2023-08-30T02:25:51;99791.41;;;13.16;78.20
64053;BME280;50299;49.524;8.536;2023-08-30T02:28:17;99790.78;;;13.07;76.32
64053;BME280;50299;49.524;8.536;2023-08-30T02:30:44;99790.16;;;12.98;77.55
64053;BME280;50299;49.524;8.536;2023-08-30T02:33:10;99793.03;;;13.01;76.22
64053;BME280;50299;49.524;8.536;2023-08-30T02:35:37;99801.16;;;13.10;79.14
64053;BME280;50299;49.524;8.536;2023-08-30T02:38:03;99794.63;;;13.02;77.38
64053;BME280;50299;49.524;8.536;2023-08-30T02:40:31;99789.09;;;13.02;77.13
64053;BME280;50299;49.524;8.536;2023-08-30T02:42:58;99797.56;;;13.10;79.47
64053;BME280;50299;49.524;8.536;2023-08-30T02:45:24;99796.78;;;13.09;76.52
64053;BME280;50299;49.524;8.536;2023-08-30T02:47:51;99796.78;;;13.09;77.64
64053;BME280;50299;49.524;8.536;2023-08-30T02:50:17;99805.28;;;13.16;78.47
64053;BME280;50299;49.524;8.536;2023-08-30T02:52:44;99799.00;;;13.03;75.43
64053;BME280;50299;49.524;8.536;2023-08-30T02:55:10;99794.75;;;12.90;77.87
64053;BME280;50299;49.524;8.536;2023-08-30T02:57:36;99799.06;;;12.88;78.30
64053;BME280;50299;49.524;8.536;2023-08-30T03:00:03;99798.50;;;12.98;80.15
64053;BME280;50299;49.524;8.536;2023-08-30T03:02:32;99799.00;;;13.03;79.84
64053;BME280;50299;49.524;8.536;2023-08-30T03:04:59;99801.88;;;13.07;78.72
64053;BME280;50299;49.524;8.536;2023-08-30T03:07:28;99798.59;;;13.01;78.82
64053;BME280;50299;49.524;8.536;2023-08-30T03:09:55;99793.56;;;12.91;78.03
64053;BME280;50299;49.524;8.536;2023-08-30T03:12:24;99795.41;;;12.83;78.45
64053;BME280;50299;49.524;8.536;2023-08-30T03:14:50;99788.41;;;12.90;80.02
64053;BME280;50299;49.524;8.536;2023-08-30T03:17:17;99789.28;;;12.94;80.45
64053;BME280;50299;49.524;8.536;2023-08-30T03:19:43;99791.78;;;12.99;80.17
64053;BME280;50299;49.524;8.536;2023-08-30T03:22:10;99803.03;;;13.06;80.40
64053;BME280;50299;49.524;8.536;2023-08-30T03:24:36;99802.88;;;12.99;79.56
64053;BME280;50299;49.524;8.536;2023-08-30T03:27:03;99809.69;;;12.86;77.76
64053;BME280;50299;49.524;8.536;2023-08-30T03:29:29;99804.63;;;12.88;79.67
64053;BME280;50299;49.524;8.536;2023-08-30T03:31:56;99809.59;;;12.98;81.05
64053;BME280;50299;49.524;8.536;2023-08-30T03:34:22;99802.97;;;13.02;77.57
64053;BME280;50299;49.524;8.536;2023-08-30T03:36:49;99808.31;;;13.11;81.89
64053;BME280;50299;49.524;8.536;2023-08-30T03:39:21;99806.28;;;13.08;78.99
64053;BME280;50299;49.524;8.536;2023-08-30T03:41:48;99810.41;;;12.98;78.27
64053;BME280;50299;49.524;8.536;2023-08-30T03:44:14;99804.66;;;13.07;80.57
64053;BME280;50299;49.524;8.536;2023-08-30T03:46:41;99797.38;;;13.18;77.99
64053;BME280;50299;49.524;8.536;2023-08-30T03:49:07;99802.56;;;13.20;77.95
64053;BME280;50299;49.524;8.536;2023-08-30T03:51:34;99799.25;;;13.14;77.19
64053;BME280;50299;49.524;8.536;2023-08-30T03:54:01;99807.78;;;13.05;76.89
64053;BME280;50299;49.524;8.536;2023-08-30T03:56:27;99797.19;;;12.92;77.38
64053;BME280;50299;49.524;8.536;2023-08-30T03:58:54;99802.56;;;12.85;78.48
64053;BME280;50299;49.524;8.536;2023-08-30T04:01:20;99801.75;;;12.84;79.82
64053;BME280;50299;49.524;8.536;2023-08-30T04:03:46;99800.28;;;12.90;79.97
64053;BME280;50299;49.524;8.536;2023-08-30T04:06:13;99801.19;;;12.94;76.59
64053;BME280;50299;49.524;8.536;2023-08-30T04:08:39;99798.50;;;12.98;78.69
64053;BME280;50299;49.524;8.536;2023-08-30T04:11:06;99796.13;;;12.80;77.05
64053;BME280;50299;49.524;8.536;2023-08-30T04:13:33;99797.44;;;12.87;77.50
64053;BME280;50299;49.524;8.536;2023-08-30T04:16:01;99789.56;;;12.89;77.95
64053;BME280;50299;49.524;8.536;2023-08-30T04:18:29;99783.97;;;12.69;78.46
64053;BME280;50299;49.524;8.536;2023-08-30T04:20:57;99788.50;;;12.46;77.33
64053;BME280;50299;49.524;8.536;2023-08-30T04:23:26;99788.25;;;12.51;79.01
64053;BME280;50299;49.524;8.536;2023-08-30T04:25:52;99798.34;;;12.43;78.36
64053;BME280;50299;49.524;8.536;2023-08-30T04:28:19;99799.59;;;12.46;80.43
64053;BME280;50299;49.524;8.536;2023-08-30T04:30:45;99794.59;;;12.51;80.74
64053;BME280;50299;49.524;8.536;2023-08-30T04:33:12;99797.38;;;12.51;80.09
64053;BME280;50299;49.524;8.536;2023-08-30T04:35:38;99793.78;;;12.51;78.83
64053;BME280;50299;49.524;8.536;2023-08-30T04:38:05;99802.81;;;12.48;78.50
64053;BME280;50299;49.524;8.536;2023-08-30T04:40:32;99799.06;;;12.40;80.43
64053;BME280;50299;49.524;8.536;2023-08-30T04:42:59;99799.53;;;12.42;79.66
64053;BME280;50299;49.524;8.536;2023-08-30T04:45:25;99795.91;;;12.57;82.05
64053;BME280;50299;49.524;8.536;2023-08-30T04:47:52;99784.41;;;12.71;82.13
64053;BME280;50299;49.524;8.536;2023-08-30T04:50:19;99790.03;;;12.75;79.41
64053;BME280;50299;49.524;8.536;2023-08-30T04:52:45;99790.13;;;12.78;81.65
64053;BME280;50299;49.524;8.536;2023-08-30T04:55:12;99784.31;;;12.68;79.70
64053;BME280;50299;49.524;8.536;2023-08-30T04:57:38;99788.97;;;12.79;78.77
64053;BME280;50299;49.524;8.536;2023-08-30T05:00:05;99792.00;;;12.74;78.19
64053;BME280;50299;49.524;8.536;2023-08-30T05:02:32;99791.84;;;12.67;77.65
64053;BME280;50299;49.524;8.536;2023-08-30T05:04:59;99796.94;;;12.65;81.46
64053;BME280;50299;49.524;8.536;2023-08-30T05:07:25;99788.13;;;12.79;82.71
64053;BME280;50299;49.524;8.536;2023-08-30T05:09:52;99796.63;;;12.86;79.42
64053;BME280;50299;49.524;8.536;2023-08-30T05:12:19;99798.19;;;12.83;81.54
64053;BME280;50299;49.524;8.536;2023-08-30T05:14:45;99791.38;;;12.81;80.56
64053;BME280;50299;49.524;8.536;2023-08-30T05:17:12;99791.56;;;12.72;78.19
64053;BME280;50299;49.524;8.536;2023-08-30T05:19:39;99788.00;;;12.72;79.63
64053;BME280;50299;49.524;8.536;2023-08-30T05:22:05;99790.56;;;12.80;81.65
64053;BME280;50299;49.524;8.536;2023-08-30T05:24:32;99784.75;;;12.86;82.43
64053;BME280;50299;49.524;8.536;2023-08-30T05:27:00;99782.16;;;12.77;79.60
64053;BME280;50299;49.524;8.536;2023-08-30T05:29:26;99781.38;;;12.76;79.44
64053;BME280;50299;49.524;8.536;2023-08-30T05:31:53;99790.91;;;12.79;83.91
64053;BME280;50299;49.524;8.536;2023-08-30T05:34:19;99792.69;;;12.87;80.80
64053;BME280;50299;49.524;8.536;2023-08-30T05:36:55;99786.34;;;12.87;78.08
64053;BME280;50299;49.524;8.536;2023-08-30T05:39:22;99785.63;;;12.90;80.53
64053;BME280;50299;49.524;8.536;2023-08-30T05:41:49;99787.97;;;12.88;80.11
64053;BME280;50299;49.524;8.536;2023-08-30T05:44:18;99785.34;;;12.95;83.40
64053;BME280;50299;49.524;8.536;2023-08-30T05:46:44;99784.25;;;12.99;82.07
64053;BME280;50299;49.524;8.536;2023-08-30T05:49:11;99778.28;;;12.97;81.62
64053;BME280;50299;49.524;8.536;2023-08-30T05:51:40;99782.84;;;12.90;79.28
64053;BME280;50299;49.524;8.536;2023-08-30T05:54:07;99777.13;;;12.82;80.26
64053;BME280;50299;49.524;8.536;2023-08-30T05:56:33;99786.78;;;12.89;82.21
64053;BME280;50299;49.524;8.536;2023-08-30T05:59:00;99787.53;;;12.70;79.82
64053;BME280;50299;49.524;8.536;2023-08-30T06:01:27;99788.16;;;12.47;80.69
64053;BME280;50299;49.524;8.536;2023-08-30T06:03:53;99786.00;;;12.41;81.73
64053;BME280;50299;49.524;8.536;2023-08-30T06:06:21;99790.97;;;12.63;82.42
64053;BME280;50299;49.524;8.536;2023-08-30T06:08:47;99790.03;;;12.75;82.51
64053;BME280;50299;49.524;8.536;2023-08-30T06:11:14;99792.53;;;12.80;81.87
64053;BME280;50299;49.524;8.536;2023-08-30T06:13:41;99785.22;;;13.07;84.55
64053;BME280;50299;49.524;8.536;2023-08-30T06:16:08;99785.31;;;13.11;81.16
64053;BME280;50299;49.524;8.536;2023-08-30T06:18:35;99789.47;;;13.01;81.77
64053;BME280;50299;49.524;8.536;2023-08-30T06:21:08;99783.50;;;13.18;82.19
64053;BME280;50299;49.524;8.536;2023-08-30T06:23:37;99781.06;;;13.52;76.37
64053;BME280;50299;49.524;8.536;2023-08-30T06:26:06;99770.91;;;13.60;79.69
64053;BME280;50299;49.524;8.536;2023-08-30T06:28:33;99780.59;;;13.69;76.74
64053;BME280;50299;49.524;8.536;2023-08-30T06:30:59;99791.41;;;13.94;79.66
64053;BME280;50299;49.524;8.536;2023-08-30T06:33:26;99787.03;;;13.93;75.97
64053;BME280;50299;49.524;8.536;2023-08-30T06:35:52;99781.91;;;13.95;73.27
64053;BME280;50299;49.524;8.536;2023-08-30T06:38:20;99789.63;;;13.63;75.27
64053;BME280;50299;49.524;8.536;2023-08-30T06:40:47;99789.78;;;13.35;73.72
64053;BME280;50299;49.524;8.536;2023-08-30T06:43:14;99796.06;;;13.31;72.76
64053;BME280;50299;49.524;8.536;2023-08-30T06:45:45;99793.44;;;13.39;76.75
64053;BME280;50299;49.524;8.536;2023-08-30T06:48:14;99795.06;;;13.40;75.26
64053;BME280;50299;49.524;8.536;2023-08-30T06:50:40;99800.19;;;13.38;76.61
64053;BME280;50299;49.524;8.536;2023-08-30T06:53:07;99788.06;;;13.46;76.79
64053;BME280;50299;49.524;8.536;2023-08-30T06:55:35;99788.28;;;13.37;77.32
64053;BME280;50299;49.524;8.536;2023-08-30T06:58:07;99794.75;;;13.45;78.76
64053;BME280;50299;49.524;8.536;2023-08-30T07:00:36;99788.81;;;13.62;77.49
64053;BME280;50299;49.524;8.536;2023-08-30T07:03:03;99788.59;;;13.71;78.34
64053;BME280;50299;49.524;8.536;2023-08-30T07:05:30;99795.81;;;13.75;75.93
64053;BME280;50299;49.524;8.536;2023-08-30T07:07:57;99790.59;;;13.93;76.25
64053;BME280;50299;49.524;8.536;2023-08-30T07:10:25;99781.31;;;14.05;75.29
64053;BME280;50299;49.524;8.536;2023-08-30T07:12:51;99776.22;;;14.11;72.25
64053;BME280;50299;49.524;8.536;2023-08-30T07:15:24;99773.97;;;14.16;75.52
64053;BME280;50299;49.524;8.536;2023-08-30T07:17:55;99769.28;;;14.43;72.33
64053;BME280;50299;49.524;8.536;2023-08-30T07:20:25;99767.44;;;14.51;73.41
64053;BME280;50299;49.524;8.536;2023-08-30T07:22:54;99771.31;;;14.23;68.64
64053;BME280;50299;49.524;8.536;2023-08-30T07:25:21;99775.34;;;13.84;69.69
64053;BME280;50299;49.524;8.536;2023-08-30T07:27:49;99763.38;;;14.02;72.41
64053;BME280;50299;49.524;8.536;2023-08-30T07:30:16;99757.78;;;14.22;71.67
64053;BME280;50299;49.524;8.536;2023-08-30T07:32:46;99765.41;;;14.48;67.70
64053;BME280;50299;49.524;8.536;2023-08-30T07:35:12;99769.28;;;14.66;67.49
64053;BME280;50299;49.524;8.536;2023-08-30T07:37:41;99770.38;;;14.88;67.57
64053;BME280;50299;49.524;8.536;2023-08-30T07:40:08;99762.63;;;15.27;68.91
64053;BME280;50299;49.524;8.536;2023-08-30T07:42:35;99762.28;;;15.66;70.88
64053;BME280;50299;49.524;8.536;2023-08-30T07:45:04;99764.28;;;15.99;64.57
64053;BME280;50299;49.524;8.536;2023-08-30T07:47:31;99770.81;;;16.14;65.92
64053;BME280;50299;49.524;8.536;2023-08-30T07:49:57;99767.13;;;16.07;67.53
64053;BME280;50299;49.524;8.536;2023-08-30T07:52:24;99768.94;;;16.25;62.66
64053;BME280;50299;49.524;8.536;2023-08-30T07:55:10;99773.16;;;16.12;63.74
64053;BME280;50299;49.524;8.536;2023-08-30T07:57:36;99771.06;;;16.43;62.33
64053;BME280;50299;49.524;8.536;2023-08-30T08:00:06;99770.91;;;16.28;63.30
64053;BME280;50299;49.524;8.536;2023-08-30T08:02:33;99774.75;;;16.54;64.20
64053;BME280;50299;49.524;8.536;2023-08-30T08:05:01;99773.38;;;16.34;61.90
64053;BME280;50299;49.524;8.536;2023-08-30T08:07:28;99772.50;;;16.26;64.17
64053;BME280;50299;49.524;8.536;2023-08-30T08:09:56;99776.06;;;16.23;62.21
64053;BME280;50299;49.524;8.536;2023-08-30T08:12:23;99784.25;;;16.46;63.76
64053;BME280;50299;49.524;8.536;2023-08-30T08:14:50;99782.50;;;16.75;64.27
64053;BME280;50299;49.524;8.536;2023-08-30T08:17:16;99790.66;;;17.01;64.01
64053;BME280;50299;49.524;8.536;2023-08-30T08:19:44;99782.41;;;17.26;63.06
64053;BME280;50299;49.524;8.536;2023-08-30T08:22:11;99788.44;;;17.36;61.77
64053;BME280;50299;49.524;8.536;2023-08-30T08:24:37;99793.72;;;17.44;61.60
64053;BME280;50299;49.524;8.536;2023-08-30T08:27:04;99789.59;;;17.20;58.93
64053;BME280;50299;49.524;8.536;2023-08-30T08:29:32;99791.75;;;17.45;62.01
64053;BME280;50299;49.524;8.536;2023-08-30T08:31:59;99791.03;;;17.66;55.82
64053;BME280;50299;49.524;8.536;2023-08-30T08:34:26;99791.00;;;17.59;55.79
64053;BME280;50299;49.524;8.536;2023-08-30T08:36:52;99796.66;;;17.73;58.96
64053;BME280;50299;49.524;8.536;2023-08-30T08:39:25;99790.31;;;17.97;58.64
64053;BME280;50299;49.524;8.536;2023-08-30T08:41:53;99784.72;;;17.97;58.41
64053;BME280;50299;49.524;8.536;2023-08-30T08:44:20;99788.38;;;18.09;56.47
64053;BME280;50299;49.524;8.536;2023-08-30T08:46:48;99776.81;;;18.10;57.89
64053;BME280;50299;49.524;8.536;2023-08-30T08:49:16;99785.13;;;17.96;54.99
64053;BME280;50299;49.524;8.536;2023-08-30T08:51:44;99789.78;;;17.53;57.10
64053;BME280;50299;49.524;8.536;2023-08-30T08:54:12;99789.34;;;17.50;61.11
64053;BME280;50299;49.524;8.536;2023-08-30T08:56:39;99788.91;;;17.41;58.21
64053;BME280;50299;49.524;8.536;2023-08-30T08:59:06;99783.19;;;17.23;55.03
64053;BME280;50299;49.524;8.536;2023-08-30T09:01:35;99788.59;;;17.57;54.56
64053;BME280;50299;49.524;8.536;2023-08-30T09:04:09;99783.38;;;17.52;55.83
64053;BME280;50299;49.524;8.536;2023-08-30T09:06:36;99779.47;;;17.74;55.25
64053;BME280;50299;49.524;8.536;2023-08-30T09:09:04;99796.53;;;17.51;53.39
64053;BME280;50299;49.524;8.536;2023-08-30T09:11:32;99788.00;;;17.26;55.07
64053;BME280;50299;49.524;8.536;2023-08-30T09:14:16;99790.63;;;16.98;54.79
64053;BME280;50299;49.524;8.536;2023-08-30T09:16:57;99781.94;;;17.10;56.29
64053;BME280;50299;49.524;8.536;2023-08-30T09:19:24;99795.16;;;17.17;56.58
64053;BME280;50299;49.524;8.536;2023-08-30T09:21:56;99804.28;;;17.14;53.36
64053;BME280;50299;49.524;8.536;2023-08-30T09:24:23;99786.06;;;17.34;58.21
64053;BME280;50299;49.524;8.536;2023-08-30T09:26:53;99788.63;;;17.61;53.23
64053;BME280;50299;49.524;8.536;2023-08-30T09:29:21;99787.34;;;17.40;52.88
64053;BME280;50299;49.524;8.536;2023-08-30T09:31:51;99779.28;;;17.35;55.33
64053;BME280;50299;49.524;8.536;2023-08-30T09:34:23;99779.59;;;17.16;56.23
64053;BME280;50299;49.524;8.536;2023-08-30T09:36:53;99781.66;;;17.33;53.50
64053;BME280;50299;49.524;8.536;2023-08-30T09:39:21;99778.22;;;17.58;54.54
64053;BME280;50299;49.524;8.536;2023-08-30T09:41:49;99773.44;;;17.58;57.59
64053;BME280;50299;49.524;8.536;2023-08-30T09:44:18;99769.47;;;17.70;55.80
64053;BME280;50299;49.524;8.536;2023-08-30T09:46:49;99770.25;;;17.63;54.64
64053;BME280;50299;49.524;8.536;2023-08-30T09:49:20;99754.31;;;17.78;56.22
64053;BME280;50299;49.524;8.536;2023-08-30T09:51:51;99762.38;;;18.08;56.35
64053;BME280;50299;49.524;8.536;2023-08-30T09:54:22;99764.03;;;18.45;51.66
64053;BME280;50299;49.524;8.536;2023-08-30T09:57:05;99766.44;;;18.64;52.81
64053;BME280;50299;49.524;8.536;2023-08-30T09:59:32;99750.44;;;18.47;53.61
64053;BME280;50299;49.524;8.536;2023-08-30T10:02:00;99764.84;;;18.53;50.27
64053;BME280;50299;49.524;8.536;2023-08-30T10:04:35;99762.00;;;18.70;49.35
64053;BME280;50299;49.524;8.536;2023-08-30T10:07:08;99756.81;;;18.80;55.64
64053;BME280;50299;49.524;8.536;2023-08-30T10:09:38;99751.56;;;19.17;52.20
64053;BME280;50299;49.524;8.536;2023-08-30T10:12:20;99742.06;;;18.40;49.39
64053;BME280;50299;49.524;8.536;2023-08-30T10:14:53;99738.47;;;18.43;54.00
64053;BME280;50299;49.524;8.536;2023-08-30T10:17:31;99738.75;;;17.84;51.72
64053;BME280;50299;49.524;8.536;2023-08-30T10:20:03;99734.44;;;18.33;49.44
64053;BME280;50299;49.524;8.536;2023-08-30T10:22:36;99734.44;;;18.51;50.99
64053;BME280;50299;49.524;8.536;2023-08-30T10:25:07;99726.03;;;18.83;55.97
64053;BME280;50299;49.524;8.536;2023-08-30T10:27:41;99734.81;;;18.92;49.48
64053;BME280;50299;49.524;8.536;2023-08-30T10:30:14;99724.03;;;18.77;51.63
64053;BME280;50299;49.524;8.536;2023-08-30T10:32:45;99716.41;;;18.98;50.87
64053;BME280;50299;49.524;8.536;2023-08-30T10:35:17;99712.75;;;19.12;52.94
64053;BME280;50299;49.524;8.536;2023-08-30T10:37:59;99712.25;;;19.35;50.35
64053;BME280;50299;49.524;8.536;2023-08-30T10:40:26;99712.63;;;19.48;53.41
64053;BME280;50299;49.524;8.536;2023-08-30T10:43:02;99710.25;;;19.39;53.93
64053;BME280;50299;49.524;8.536;2023-08-30T10:45:32;99714.19;;;19.53;49.56
64053;BME280;50299;49.524;8.536;2023-08-30T10:48:01;99713.38;;;19.56;51.11
64053;BME280;50299;49.524;8.536;2023-08-30T10:50:31;99709.38;;;19.57;52.22
64053;BME280;50299;49.524;8.536;2023-08-30T10:53:01;99712.13;;;19.71;49.78
64053;BME280;50299;49.524;8.536;2023-08-30T10:55:30;99699.34;;;19.59;49.02
64053;BME280;50299;49.524;8.536;2023-08-30T10:58:00;99693.28;;;19.71;51.76
64053;BME280;50299;49.524;8.536;2023-08-30T11:00:28;99709.66;;;19.77;49.92
64053;BME280;50299;49.524;8.536;2023-08-30T11:02:59;99696.84;;;19.76;42.21
64053;BME280;50299;49.524;8.536;2023-08-30T11:05:26;99692.03;;;19.80;45.75
64053;BME280;50299;49.524;8.536;2023-08-30T11:07:57;99689.44;;;20.03;43.88
64053;BME280;50299;49.524;8.536;2023-08-30T11:10:24;99688.31;;;19.93;45.36
64053;BME280;50299;49.524;8.536;2023-08-30T11:12:51;99689.28;;;19.69;43.02
64053;BME280;50299;49.524;8.536;2023-08-30T11:15:20;99678.47;;;20.23;42.64
64053;BME280;50299;49.524;8.536;2023-08-30T11:17:48;99683.31;;;20.23;43.15
64053;BME280;50299;49.524;8.536;2023-08-30T11:20:17;99678.44;;;20.30;43.30
64053;BME280;50299;49.524;8.536;2023-08-30T11:22:49;99674.00;;;19.77;45.27
64053;BME280;50299;49.524;8.536;2023-08-30T11:25:19;99677.28;;;19.65;48.04
64053;BME280;50299;49.524;8.536;2023-08-30T11:27:46;99664.81;;;19.77;45.48
64053;BME280;50299;49.524;8.536;2023-08-30T11:30:14;99664.38;;;19.78;44.06
64053;BME280;50299;49.524;8.536;2023-08-30T11:32:41;99663.00;;;19.45;44.93
64053;BME280;50299;49.524;8.536;2023-08-30T11:35:12;99659.78;;;19.39;47.55
64053;BME280;50299;49.524;8.536;2023-08-30T11:37:40;99651.81;;;19.34;45.90
64053;BME280;50299;49.524;8.536;2023-08-30T11:40:12;99659.31;;;19.59;43.54
64053;BME280;50299;49.524;8.536;2023-08-30T11:42:42;99660.56;;;19.54;48.79
64053;BME280;50299;49.524;8.536;2023-08-30T11:45:14;99652.97;;;20.03;45.83
64053;BME280;50299;49.524;8.536;2023-08-30T11:47:41;99659.03;;;19.98;43.84
64053;BME280;50299;49.524;8.536;2023-08-30T11:50:10;99658.16;;;20.08;47.16
64053;BME280;50299;49.524;8.536;2023-08-30T11:52:38;99649.97;;;20.69;46.14
64053;BME280;50299;49.524;8.536;2023-08-30T11:55:07;99654.16;;;20.54;40.91
64053;BME280;50299;49.524;8.536;2023-08-30T11:57:35;99654.09;;;20.16;41.13
64053;BME280;50299;49.524;8.536;2023-08-30T12:00:12;99648.31;;;19.86;44.07
64053;BME280;50299;49.524;8.536;2023-08-30T12:02:39;99648.22;;;19.96;41.63
64053;BME280;50299;49.524;8.536;2023-08-30T12:05:10;99638.72;;;20.32;43.68
64053;BME280;50299;49.524;8.536;2023-08-30T12:07:40;99634.88;;;20.15;46.85
64053;BME280;50299;49.524;8.536;2023-08-30T12:10:10;99641.28;;;20.15;43.87
64053;BME280;50299;49.524;8.536;2023-08-30T12:12:37;99635.84;;;20.39;39.97
64053;BME280;50299;49.524;8.536;2023-08-30T12:15:09;99633.22;;;20.21;41.58
64053;BME280;50299;49.524;8.536;2023-08-30T12:17:41;99639.56;;;20.66;45.17
64053;BME280;50299;49.524;8.536;2023-08-30T12:20:16;99636.81;;;20.63;39.54
64053;BME280;50299;49.524;8.536;2023-08-30T12:22:54;99630.25;;;20.35;38.80
64053;BME280;50299;49.524;8.536;2023-08-30T12:25:22;99620.69;;;19.21;39.98
64053;BME280;50299;49.524;8.536;2023-08-30T12:27:55;99618.41;;;19.65;45.23
64053;BME280;50299;49.524;8.536;2023-08-30T12:30:21;99614.34;;;20.25;39.32
64053;BME280;50299;49.524;8.536;2023-08-30T12:32:59;99610.25;;;20.33;45.12
64053;BME280;50299;49.524;8.536;2023-08-30T12:35:26;99606.63;;;20.70;41.37
64053;BME280;50299;49.524;8.536;2023-08-30T12:37:59;99619.34;;;20.44;43.35
64053;BME280;50299;49.524;8.536;2023-08-30T12:40:26;99612.09;;;20.06;39.35
64053;BME280;50299;49.524;8.536;2023-08-30T12:42:55;99609.16;;;19.75;44.84
64053;BME280;50299;49.524;8.536;2023-08-30T12:45:22;99610.09;;;19.54;42.59
64053;BME280;50299;49.524;8.536;2023-08-30T12:47:49;99603.41;;;19.30;41.56
64053;BME280;50299;49.524;8.536;2023-08-30T12:50:18;99600.94;;;19.46;41.22
64053;BME280;50299;49.524;8.536;2023-08-30T12:52:52;99603.03;;;19.87;41.67
64053;BME280;50299;49.524;8.536;2023-08-30T12:55:19;99608.78;;;19.66;38.51
64053;BME280;50299;49.524;8.536;2023-08-30T12:57:45;99607.53;;;19.74;39.90
64053;BME280;50299;49.524;8.536;2023-08-30T13:00:13;99606.88;;;20.08;40.38
64053;BME280;50299;49.524;8.536;2023-08-30T13:02:40;99607.44;;;20.33;38.33
64053;BME280;50299;49.524;8.536;2023-08-30T13:05:07;99600.78;;;20.20;38.34
64053;BME280;50299;49.524;8.536;2023-08-30T13:07:36;99603.09;;;20.29;41.43
64053;BME280;50299;49.524;8.536;2023-08-30T13:10:08;99607.47;;;19.81;37.68
64053;BME280;50299;49.524;8.536;2023-08-30T13:12:35;99605.84;;;19.87;35.93